createdAt,value
2022-10-13T00:00:39.336Z,100442.47
2022-10-13T00:03:27.743Z,100444.44
2022-10-13T00:06:18.837Z,100440.53
2022-10-13T00:09:07.392Z,100440.72
2022-10-13T00:11:58.319Z,100436.47
2022-10-13T00:14:46.730Z,100439.16
2022-10-13T00:17:37.264Z,100440.88
2022-10-13T00:20:25.619Z,100442.81
2022-10-13T00:23:14.782Z,100437.06
2022-10-13T00:26:04.581Z,100433.94
2022-10-13T00:28:53.383Z,100429.84
2022-10-13T00:31:41.814Z,100431.59
2022-10-13T00:34:31.496Z,100425.56
2022-10-13T00:37:19.792Z,100424.75
2022-10-13T00:40:09.587Z,100429.97
2022-10-13T00:42:58.584Z,100425.72
2022-10-13T00:45:49.782Z,100419.75
2022-10-13T00:48:38.179Z,100421.56
2022-10-13T00:51:30.036Z,100421.44
2022-10-13T00:54:21.430Z,100424.81
2022-10-13T00:57:09.825Z,100431.66
2022-10-13T00:59:58.288Z,100434.16
2022-10-13T01:02:46.618Z,100430.56
2022-10-13T01:05:34.940Z,100432.19
2022-10-13T01:08:26.881Z,100423.44
2022-10-13T01:11:44.159Z,100430.22
2022-10-13T01:14:35.264Z,100433.50
2022-10-13T01:17:29.692Z,100424.72
2022-10-13T01:21:11.228Z,100423.66
2022-10-13T01:24:40.198Z,100426.31
2022-10-13T01:27:58.784Z,100418.63
2022-10-13T01:30:49.929Z,100418.75
2022-10-13T01:33:42.925Z,100424.81
2022-10-13T01:36:35.704Z,100416.22
2022-10-13T01:39:26.700Z,100420.56
2022-10-13T01:42:17.299Z,100423.78
2022-10-13T01:45:06.603Z,100420.19
2022-10-13T01:47:56.323Z,100426.06
2022-10-13T01:50:44.720Z,100430.28
2022-10-13T01:53:33.090Z,100418.94
2022-10-13T01:56:21.462Z,100420.56
2022-10-13T01:59:12.859Z,100418.69
2022-10-13T02:02:06.697Z,100416.22
2022-10-13T02:04:58.746Z,100419.94
2022-10-13T02:07:49.482Z,100427.00
2022-10-13T02:10:47.531Z,100422.00
2022-10-13T02:13:36.016Z,100419.44
2022-10-13T02:16:28.480Z,100415.88
2022-10-13T02:19:18.120Z,100422.50
2022-10-13T02:22:07.989Z,100418.94
2022-10-13T02:24:56.367Z,100407.50
2022-10-13T02:27:44.724Z,100402.19
2022-10-13T02:30:33.525Z,100400.50
2022-10-13T02:33:22.077Z,100397.91
2022-10-13T02:36:10.771Z,100400.50
2022-10-13T02:39:00.495Z,100398.06
2022-10-13T02:41:48.873Z,100389.47
2022-10-13T02:44:37.218Z,100392.09
2022-10-13T02:47:25.698Z,100388.75
2022-10-13T02:50:39.186Z,100383.03
2022-10-13T02:53:27.554Z,100387.63
2022-10-13T02:56:19.201Z,100386.13
2022-10-13T02:59:07.553Z,100386.13
2022-10-13T03:01:56.741Z,100373.28
2022-10-13T03:04:45.428Z,100375.94
2022-10-13T03:07:33.767Z,100379.28
2022-10-13T03:10:22.477Z,100385.53
2022-10-13T03:13:14.677Z,100376.25
2022-10-13T03:16:03.357Z,100381.63
2022-10-13T03:18:51.765Z,100373.09
2022-10-13T03:21:40.170Z,100374.91
2022-10-13T03:24:28.522Z,100379.22
2022-10-13T03:27:16.937Z,100381.75
2022-10-13T03:30:08.453Z,100390.41
2022-10-13T03:32:56.768Z,100395.53
2022-10-13T03:35:45.095Z,100390.31
2022-10-13T03:38:34.589Z,100386.66
2022-10-13T03:41:22.972Z,100379.88
2022-10-13T03:44:13.173Z,100383.38
2022-10-13T03:47:02.856Z,100380.06
2022-10-13T03:49:51.737Z,100384.44
2022-10-13T03:52:40.098Z,100372.56
2022-10-13T03:55:28.546Z,100372.06
2022-10-13T03:58:16.926Z,100373.94
2022-10-13T04:01:07.213Z,100364.75
2022-10-13T04:03:57.099Z,100377.81
2022-10-13T04:06:45.433Z,100380.44
2022-10-13T04:09:33.926Z,100384.78
2022-10-13T04:12:22.683Z,100389.09
2022-10-13T04:15:12.341Z,100389.81
2022-10-13T04:18:00.692Z,100381.16
2022-10-13T04:20:50.346Z,100379.38
2022-10-13T04:23:38.779Z,100384.41
2022-10-13T04:26:29.073Z,100387.75
2022-10-13T04:29:18.762Z,100383.56
2022-10-13T04:32:13.300Z,100386.34
2022-10-13T04:35:01.761Z,100386.34
2022-10-13T04:37:51.422Z,100383.66
2022-10-13T04:40:39.726Z,100387.94
2022-10-13T04:43:28.509Z,100389.44
2022-10-13T04:46:23.493Z,100391.13
2022-10-13T04:49:12.680Z,100382.38
2022-10-13T04:52:02.565Z,100380.59
2022-10-13T04:54:52.245Z,100382.25
2022-10-13T04:57:40.618Z,100377.09
2022-10-13T05:00:29.016Z,100382.19
2022-10-13T05:03:17.386Z,100375.28
2022-10-13T05:06:06.204Z,100364.22
2022-10-13T05:08:54.696Z,100362.59
2022-10-13T05:11:44.389Z,100364.34
2022-10-13T05:14:33.867Z,100365.13
2022-10-13T05:17:22.549Z,100358.09
2022-10-13T05:20:12.359Z,100350.16
2022-10-13T05:23:00.741Z,100343.19
2022-10-13T05:25:49.099Z,100335.28
2022-10-13T05:28:40.949Z,100326.50
2022-10-13T05:31:30.465Z,100332.50
2022-10-13T05:34:19.016Z,100329.91
2022-10-13T05:37:07.432Z,100320.41
2022-10-13T05:39:55.792Z,100317.91
2022-10-13T05:42:44.497Z,100323.19
2022-10-13T05:45:34.815Z,100322.59
2022-10-13T05:48:23.257Z,100322.03
2022-10-13T05:51:14.933Z,100324.91
2022-10-13T05:54:05.214Z,100317.41
2022-10-13T05:56:56.171Z,100305.56
2022-10-13T05:59:46.039Z,100297.81
2022-10-13T06:02:42.656Z,100299.44
2022-10-13T06:05:14.568Z,100298.22
2022-10-13T06:07:43.651Z,100296.31
2022-10-13T06:10:11.953Z,100290.91
2022-10-13T06:12:40.116Z,100300.19
2022-10-13T06:15:10.056Z,100292.31
2022-10-13T06:17:39.640Z,100293.91
2022-10-13T06:20:09.526Z,100300.69
2022-10-13T06:22:39.217Z,100302.41
2022-10-13T06:25:09.476Z,100302.13
2022-10-13T06:27:37.569Z,100303.66
2022-10-13T06:30:06.375Z,100295.72
2022-10-13T06:32:34.622Z,100308.31
2022-10-13T06:35:05.024Z,100308.19
2022-10-13T06:37:33.146Z,100305.53
2022-10-13T06:40:02.406Z,100300.38
2022-10-13T06:42:31.736Z,100309.78
2022-10-13T06:45:25.830Z,100313.94
2022-10-13T06:47:54.598Z,100324.06
2022-10-13T06:50:24.078Z,100324.69
2022-10-13T06:52:52.576Z,100319.22
2022-10-13T06:55:20.720Z,100325.59
2022-10-13T06:57:48.830Z,100326.88
2022-10-13T07:00:17.224Z,100331.88
2022-10-13T07:02:51.496Z,100331.13
2022-10-13T07:05:19.637Z,100335.53
2022-10-13T07:07:49.052Z,100327.06
2022-10-13T07:10:17.424Z,100327.97
2022-10-13T07:12:46.813Z,100334.63
2022-10-13T07:15:15.142Z,100329.09
2022-10-13T07:17:43.222Z,100315.94
2022-10-13T07:20:12.247Z,100318.09
2022-10-13T07:22:40.321Z,100325.44
2022-10-13T07:25:10.887Z,100324.09
2022-10-13T07:27:40.706Z,100321.00
2022-10-13T07:30:09.897Z,100328.00
2022-10-13T07:32:39.043Z,100311.38
2022-10-13T07:35:08.045Z,100310.31
2022-10-13T07:37:36.976Z,100311.72
2022-10-13T07:40:10.894Z,100307.63
2022-10-13T07:42:39.237Z,100311.69
2022-10-13T07:45:09.266Z,100317.56
2022-10-13T07:47:37.428Z,100314.81
2022-10-13T07:50:06.525Z,100315.41
2022-10-13T07:52:36.313Z,100317.13
2022-10-13T07:55:05.638Z,100312.06
2022-10-13T07:57:35.370Z,100311.22
2022-10-13T08:00:05.990Z,100286.84
2022-10-13T08:02:40.493Z,100281.03
2022-10-13T08:05:09.408Z,100283.38
2022-10-13T08:07:38.034Z,100277.63
2022-10-13T08:10:07.754Z,100271.63
2022-10-13T08:12:37.783Z,100263.91
2022-10-13T08:15:09.366Z,100272.00
2022-10-13T08:17:37.703Z,100279.41
2022-10-13T08:20:07.420Z,100281.56
2022-10-13T08:22:35.500Z,100279.41
2022-10-13T08:25:03.589Z,100285.28
2022-10-13T08:27:49.632Z,100281.19
2022-10-13T08:30:19.888Z,100273.66
2022-10-13T08:32:48.095Z,100280.53
2022-10-13T08:35:16.402Z,100288.28
2022-10-13T08:37:44.673Z,100293.28
2022-10-13T08:40:23.011Z,100291.50
2022-10-13T08:42:51.268Z,100288.81
2022-10-13T08:45:40.747Z,100287.13
2022-10-13T08:48:13.064Z,100287.13
2022-10-13T08:50:43.080Z,100286.66
2022-10-13T08:53:14.964Z,100291.59
2022-10-13T08:55:50.024Z,100291.59
2022-10-13T08:58:25.172Z,100301.31
2022-10-13T09:01:01.309Z,100299.50
2022-10-13T09:03:30.506Z,100307.06
2022-10-13T09:06:12.526Z,100305.19
2022-10-13T09:08:42.821Z,100309.41
2022-10-13T09:11:12.752Z,100320.50
2022-10-13T09:14:08.283Z,100318.66
2022-10-13T09:16:44.606Z,100316.72
2022-10-13T09:19:27.372Z,100325.63
2022-10-13T09:21:56.444Z,100321.25
2022-10-13T09:24:27.082Z,100327.38
2022-10-13T09:27:06.753Z,100324.84
2022-10-13T09:29:36.817Z,100326.69
2022-10-13T09:32:13.647Z,100323.25
2022-10-13T09:34:43.526Z,100314.53
2022-10-13T09:37:20.742Z,100307.44
2022-10-13T09:40:01.344Z,100309.91
2022-10-13T09:42:31.702Z,100314.03
2022-10-13T09:45:10.654Z,100308.59
2022-10-13T09:47:38.792Z,100311.72
2022-10-13T09:50:19.053Z,100307.19
2022-10-13T09:52:47.741Z,100300.97
2022-10-13T09:55:32.612Z,100302.28
2022-10-13T09:58:05.749Z,100306.41
2022-10-13T10:00:33.994Z,100303.66
2022-10-13T10:03:07.094Z,100308.47
2022-10-13T10:05:44.086Z,100307.72
2022-10-13T10:08:15.950Z,100301.06
2022-10-13T10:10:44.051Z,100297.50
2022-10-13T10:13:12.963Z,100292.03
2022-10-13T10:15:50.861Z,100294.38
2022-10-13T10:18:21.437Z,100285.50
2022-10-13T10:21:01.494Z,100283.81
2022-10-13T10:23:38.195Z,100299.25
2022-10-13T10:26:07.723Z,100304.63
2022-10-13T10:29:13.184Z,100299.09
2022-10-13T10:31:52.063Z,100304.38
2022-10-13T10:34:43.269Z,100301.78
2022-10-13T10:37:25.161Z,100304.47
2022-10-13T10:40:03.550Z,100298.59
2022-10-13T10:43:10.724Z,100291.75
2022-10-13T10:45:39.966Z,100297.22
2022-10-13T10:48:17.158Z,100302.47
2022-10-13T10:50:45.468Z,100288.72
2022-10-13T10:53:20.492Z,100269.59
2022-10-13T10:56:14.101Z,100275.66
2022-10-13T10:58:46.566Z,100252.16
2022-10-13T11:01:26.204Z,100251.25
2022-10-13T11:03:58.797Z,100257.19
2022-10-13T11:06:34.406Z,100251.81
2022-10-13T11:09:05.145Z,100257.69
2022-10-13T11:11:43.544Z,100253.31
2022-10-13T11:14:27.968Z,100234.03
2022-10-13T11:17:28.544Z,100232.16
2022-10-13T11:19:57.854Z,100217.47
2022-10-13T11:22:27.641Z,100209.53
2022-10-13T11:25:03.547Z,100202.09
2022-10-13T11:27:43.737Z,100190.78
2022-10-13T11:30:50.977Z,100190.53
2022-10-13T11:33:37.659Z,100183.19
2022-10-13T11:36:56.176Z,100164.78
2022-10-13T11:39:55.453Z,100148.00
2022-10-13T11:42:55.577Z,100140.16
2022-10-13T11:45:57.761Z,100146.34
2022-10-13T11:49:40.259Z,100139.41
2022-10-13T11:52:41.715Z,100146.53
2022-10-13T11:55:16.175Z,100150.34
2022-10-13T11:57:47.191Z,100147.00
2022-10-13T12:00:18.809Z,100134.09
2022-10-13T12:02:53.479Z,100134.84
2022-10-13T12:05:25.766Z,100133.09
2022-10-13T12:07:58.094Z,100133.63
2022-10-13T12:10:32.136Z,100139.78
2022-10-13T12:13:03.499Z,100141.84
2022-10-13T12:15:36.447Z,100147.94
2022-10-13T12:18:22.314Z,100139.78
2022-10-13T12:20:55.528Z,100131.13
2022-10-13T12:23:24.613Z,100137.28
2022-10-13T12:25:57.896Z,100144.38
2022-10-13T12:28:29.817Z,100138.09
2022-10-13T12:30:59.552Z,100134.25
2022-10-13T12:33:32.463Z,100138.00
2022-10-13T12:36:15.492Z,100127.66
2022-10-13T12:38:50.190Z,100123.63
2022-10-13T12:41:20.136Z,100127.47
2022-10-13T12:43:49.645Z,100138.13
2022-10-13T12:46:39.686Z,100133.94
2022-10-13T12:49:08.159Z,100130.19
2022-10-13T12:51:37.566Z,100128.06
2022-10-13T12:54:10.190Z,100131.22
2022-10-13T12:56:38.278Z,100127.47
2022-10-13T12:59:17.222Z,100126.44
2022-10-13T13:01:55.541Z,100127.00
2022-10-13T13:04:42.487Z,100128.88
2022-10-13T13:07:37.932Z,100131.63
2022-10-13T13:10:18.032Z,100118.88
2022-10-13T13:12:49.564Z,100119.06
2022-10-13T13:15:34.822Z,100103.03
2022-10-13T13:18:36.038Z,100105.97
2022-10-13T13:21:08.394Z,100113.38
2022-10-13T13:23:37.108Z,100122.88
2022-10-13T13:26:13.325Z,100127.56
2022-10-13T13:28:47.107Z,100113.66
2022-10-13T13:31:17.310Z,100104.91
2022-10-13T13:33:45.654Z,100111.06
2022-10-13T13:36:16.872Z,100113.28
2022-10-13T13:38:47.760Z,100109.72
2022-10-13T13:41:16.037Z,100107.66
2022-10-13T13:43:44.142Z,100109.81
2022-10-13T13:46:24.740Z,100096.59
2022-10-13T13:48:53.528Z,100106.78
2022-10-13T13:51:21.543Z,100101.38
2022-10-13T13:53:49.656Z,100080.50
2022-10-13T13:56:20.465Z,100051.59
2022-10-13T13:58:48.614Z,100056.56
2022-10-13T14:01:18.102Z,100072.97
2022-10-13T14:03:46.415Z,100081.09
2022-10-13T14:06:20.185Z,100082.16
2022-10-13T14:08:49.453Z,100066.69
2022-10-13T14:11:17.537Z,100066.03
2022-10-13T14:13:45.683Z,100064.53
2022-10-13T14:16:18.567Z,100050.00
2022-10-13T14:18:46.801Z,100050.56
2022-10-13T14:21:15.033Z,100060.09
2022-10-13T14:23:46.855Z,100066.97
2022-10-13T14:26:15.510Z,100074.94
2022-10-13T14:28:44.560Z,100077.16
2022-10-13T14:31:15.745Z,100069.03
2022-10-13T14:33:52.004Z,100078.53
2022-10-13T14:36:23.050Z,100066.19
2022-10-13T14:38:52.207Z,100056.47
2022-10-13T14:41:29.967Z,100059.09
2022-10-13T14:43:58.145Z,100055.53
2022-10-13T14:46:27.159Z,100063.47
2022-10-13T14:48:56.599Z,100079.97
2022-10-13T14:51:24.733Z,100074.03
2022-10-13T14:53:52.947Z,100080.44
2022-10-13T14:56:22.546Z,100080.88
2022-10-13T14:58:54.375Z,100084.41
2022-10-13T15:01:22.630Z,100086.50
2022-10-13T15:03:51.014Z,100085.78
2022-10-13T15:06:21.789Z,100079.25
2022-10-13T15:08:50.235Z,100085.72
2022-10-13T15:11:19.418Z,100087.16
2022-10-13T15:13:47.711Z,100084.34
2022-10-13T15:16:17.747Z,100081.22
2022-10-13T15:18:45.826Z,100076.22
2022-10-13T15:21:13.996Z,100073.38
2022-10-13T15:23:44.070Z,100062.66
2022-10-13T15:26:12.540Z,100071.19
2022-10-13T15:28:42.364Z,100066.81
2022-10-13T15:31:11.447Z,100072.78
2022-10-13T15:33:40.253Z,100076.09
2022-10-13T15:36:09.243Z,100075.16
2022-10-13T15:38:40.752Z,100056.88
2022-10-13T15:41:11.507Z,100057.84
2022-10-13T15:43:39.716Z,100057.84
2022-10-13T15:46:08.979Z,100053.53
2022-10-13T15:48:37.075Z,100053.78
2022-10-13T15:51:10.219Z,100056.81
2022-10-13T15:53:38.248Z,100062.25
2022-10-13T15:56:06.998Z,100054.84
2022-10-13T15:58:37.237Z,100058.59
2022-10-13T16:01:09.622Z,100061.44
2022-10-13T16:03:37.967Z,100058.81
2022-10-13T16:06:07.561Z,100059.00
2022-10-13T16:08:37.474Z,100058.19
2022-10-13T16:11:09.604Z,100063.63
2022-10-13T16:13:39.360Z,100058.81
2022-10-13T16:16:08.077Z,100064.22
2022-10-13T16:18:37.483Z,100065.28
2022-10-13T16:21:13.341Z,100067.38
2022-10-13T16:23:45.476Z,100078.03
2022-10-13T16:26:13.577Z,100071.13
2022-10-13T16:28:43.023Z,100073.84
2022-10-13T16:31:13.573Z,100066.13
2022-10-13T16:33:44.013Z,100058.72
2022-10-13T16:36:13.437Z,100047.63
2022-10-13T16:38:41.669Z,100050.69
2022-10-13T16:41:13.928Z,100038.34
2022-10-13T16:43:43.734Z,100049.56
2022-10-13T16:46:13.297Z,100069.16
2022-10-13T16:48:41.729Z,100073.75
2022-10-13T16:51:10.936Z,100084.25
2022-10-13T16:53:39.523Z,100084.34
2022-10-13T16:56:08.212Z,100080.91
2022-10-13T16:58:36.289Z,100074.75
2022-10-13T17:01:08.552Z,100069.75
2022-10-13T17:03:36.853Z,100075.19
2022-10-13T17:06:05.131Z,100060.16
2022-10-13T17:08:33.394Z,100065.75
2022-10-13T17:11:03.434Z,100056.78
2022-10-13T17:13:31.863Z,100062.28
2022-10-13T17:15:59.955Z,100069.66
2022-10-13T17:18:29.399Z,100072.44
2022-10-13T17:20:58.883Z,100070.97
2022-10-13T17:23:27.342Z,100070.25
2022-10-13T17:25:55.721Z,100064.59
2022-10-13T17:28:24.444Z,100069.13
2022-10-13T17:30:59.545Z,100070.47
2022-10-13T17:33:29.270Z,100068.19
2022-10-13T17:36:00.017Z,100072.78
2022-10-13T17:38:28.406Z,100072.97
2022-10-13T17:41:00.765Z,100067.22
2022-10-13T17:43:29.072Z,100074.28
2022-10-13T17:46:07.553Z,100066.00
2022-10-13T17:48:47.198Z,100072.03
2022-10-13T17:51:16.418Z,100067.13
2022-10-13T17:53:44.977Z,100076.91
2022-10-13T17:56:14.512Z,100070.97
2022-10-13T17:58:43.176Z,100067.63
2022-10-13T18:01:15.982Z,100071.97
2022-10-13T18:03:46.776Z,100068.00
2022-10-13T18:06:15.366Z,100074.69
2022-10-13T18:08:44.005Z,100072.16
2022-10-13T18:11:14.875Z,100069.66
2022-10-13T18:13:43.210Z,100071.41
2022-10-13T18:16:14.708Z,100072.34
2022-10-13T18:18:43.748Z,100076.69
2022-10-13T18:21:14.238Z,100064.56
2022-10-13T18:23:44.065Z,100076.53
2022-10-13T18:26:13.787Z,100073.94
2022-10-13T18:28:43.373Z,100077.44
2022-10-13T18:31:18.859Z,100076.53
2022-10-13T18:33:47.173Z,100072.97
2022-10-13T18:36:19.802Z,100076.44
2022-10-13T18:38:48.085Z,100070.38
2022-10-13T18:41:16.556Z,100066.13
2022-10-13T18:43:44.758Z,100064.44
2022-10-13T18:46:13.069Z,100069.66
2022-10-13T18:48:41.704Z,100070.66
2022-10-13T18:51:12.421Z,100073.19
2022-10-13T18:53:43.782Z,100063.63
2022-10-13T18:56:14.227Z,100073.94
2022-10-13T18:58:42.380Z,100069.66
2022-10-13T19:01:11.745Z,100062.03
2022-10-13T19:03:41.418Z,100069.94
2022-10-13T19:06:10.884Z,100080.25
2022-10-13T19:08:42.311Z,100065.47
2022-10-13T19:11:13.602Z,100070.66
2022-10-13T19:13:41.946Z,100075.25
2022-10-13T19:16:10.295Z,100077.09
2022-10-13T19:18:38.488Z,100064.84
2022-10-13T19:21:07.032Z,100065.75
2022-10-13T19:23:35.436Z,100074.66
2022-10-13T19:26:13.947Z,100078.28
2022-10-13T19:28:43.211Z,100075.88
2022-10-13T19:31:11.664Z,100081.00
2022-10-13T19:33:44.741Z,100079.22
2022-10-13T19:36:22.865Z,100089.53
2022-10-13T19:38:53.096Z,100101.34
2022-10-13T19:41:22.721Z,100097.72
2022-10-13T19:43:50.976Z,100098.44
2022-10-13T19:46:19.180Z,100100.03
2022-10-13T19:48:47.302Z,100102.53
2022-10-13T19:51:15.492Z,100102.47
2022-10-13T19:53:43.884Z,100071.34
2022-10-13T19:56:22.670Z,100074.84
2022-10-13T19:58:50.840Z,100079.97
2022-10-13T20:01:20.750Z,100074.69
2022-10-13T20:04:09.252Z,100071.13
2022-10-13T20:06:58.817Z,100066.66
2022-10-13T20:09:47.471Z,100074.47
2022-10-13T20:12:37.227Z,100069.47
2022-10-13T20:15:25.584Z,100077.34
2022-10-13T20:18:15.774Z,100075.03
2022-10-13T20:21:04.595Z,100090.66
2022-10-13T20:23:52.982Z,100072.66
2022-10-13T20:26:41.636Z,100089.16
2022-10-13T20:29:31.546Z,100088.41
2022-10-13T20:32:20.095Z,100094.63
2022-10-13T20:35:09.274Z,100101.63
2022-10-13T20:37:57.816Z,100103.47
2022-10-13T20:40:46.755Z,100096.59
2022-10-13T20:43:35.422Z,100095.13
2022-10-13T20:46:25.629Z,100089.44
2022-10-13T20:49:14.001Z,100084.69
2022-10-13T20:52:02.538Z,100086.66
2022-10-13T20:54:51.083Z,100084.13
2022-10-13T20:57:39.655Z,100077.25
2022-10-13T21:00:28.255Z,100078.19
2022-10-13T21:03:19.393Z,100081.72
2022-10-13T21:06:11.158Z,100079.97
2022-10-13T21:08:59.513Z,100073.28
2022-10-13T21:11:47.917Z,100083.47
2022-10-13T21:14:36.358Z,100073.06
2022-10-13T21:17:24.691Z,100074.75
2022-10-13T21:20:14.438Z,100069.44
2022-10-13T21:23:02.932Z,100063.41
2022-10-13T21:25:51.315Z,100070.19
2022-10-13T21:28:40.164Z,100074.56
2022-10-13T21:31:28.904Z,100079.59
2022-10-13T21:34:17.301Z,100087.28
2022-10-13T21:37:07.229Z,100091.56
2022-10-13T21:39:55.628Z,100085.44
2022-10-13T21:42:44.090Z,100079.41
2022-10-13T21:45:32.716Z,100088.69
2022-10-13T21:48:21.119Z,100088.59
2022-10-13T21:51:14.550Z,100084.25
2022-10-13T21:54:05.885Z,100090.34
2022-10-13T21:56:54.284Z,100080.78
2022-10-13T21:59:42.687Z,100083.38
2022-10-13T22:02:31.045Z,100086.72
2022-10-13T22:05:19.518Z,100093.69
2022-10-13T22:08:09.424Z,100084.13
2022-10-13T22:10:59.355Z,100089.53
2022-10-13T22:13:47.783Z,100095.47
2022-10-13T22:16:37.634Z,100093.53
2022-10-13T22:19:26.106Z,100091.78
2022-10-13T22:22:15.885Z,100088.41
2022-10-13T22:25:04.506Z,100086.44
2022-10-13T22:27:55.278Z,100096.03
2022-10-13T22:30:43.655Z,100097.81
2022-10-13T22:33:32.098Z,100093.44
2022-10-13T22:36:22.031Z,100096.13
2022-10-13T22:39:11.347Z,100090.94
2022-10-13T22:41:59.854Z,100092.69
2022-10-13T22:44:49.647Z,100088.41
2022-10-13T22:47:38.066Z,100084.13
2022-10-13T22:50:26.556Z,100086.84
2022-10-13T22:53:14.979Z,100082.47
2022-10-13T22:56:06.669Z,100085.81
2022-10-13T22:58:58.104Z,100082.47
2022-10-13T23:01:47.884Z,100085.06
2022-10-13T23:04:36.325Z,100075.59
2022-10-13T23:07:24.888Z,100081.72
2022-10-13T23:10:13.253Z,100083.38
2022-10-13T23:13:04.092Z,100082.56
2022-10-13T23:15:52.553Z,100082.47
2022-10-13T23:18:47.455Z,100085.06
2022-10-13T23:21:44.956Z,100092.03
2022-10-13T23:24:33.615Z,100081.72
2022-10-13T23:27:22.446Z,100081.72
2022-10-13T23:30:13.229Z,100081.81
2022-10-13T23:33:01.589Z,100080.97
2022-10-13T23:35:56.510Z,100081.91
2022-10-13T23:38:45.513Z,100084.59
2022-10-13T23:41:34.032Z,100086.38
2022-10-13T23:44:22.484Z,100087.28
2022-10-13T23:47:11.786Z,100090.81
2022-10-13T23:50:00.268Z,100087.47
2022-10-13T23:52:50.135Z,100080.59
2022-10-13T23:55:39.731Z,100082.28
2022-10-13T23:58:28.064Z,100077.00
